QTR8 CYYZ-OMAA
Flight info
| Callsign | QTR8 |
|---|---|
| Flight time | N/A |
| Altitude | 31000 |
| Route | VERDO7 IPTOS Q921 AGLUK DCT CEFOU DCT NEEKO/M085F330 DCT 54N050W 55N040W 56N030W 56N020W DCT RESNO DCT NETKI/N0485F330 DCT CON DCT MORAG/N0481F350 DCT NUCHU DCT BOGNA UL612 XAMAB DCT VEULE DCT INPAX DCT RESMI DCT ODEBU DCT OGULO DCT OKASI DCT OKEKO DCT MOU DCT MADIV DCT MOKIP DCT TUFTA DCT KOGAS DCT MEDAM DCT NITAM DCT MOGBO DCT BELIX DCT SALUN N705 MMA/N0482F370 P751 DASUM Y234 FYM M872 BDB Y214 RAPMA DCT KUVSO DCT KATIT DCT DANUX DCT TANSU/N0509F330 G783 VAVIM P899 ROVOS |
| Aircraft | B77W/H-SDE1E2E3FGHIJ2J3J4J5M1RWXY/LB1D1 |
Departure
| Time | N/A |
|---|---|
| Airport | Toronto Pearson International Airport (CYYZ) |
Arrival
| Time | 2026-05-07 19:56 |
|---|---|
| Airport | Zayed International Airport (OMAA) |
| Time | Latitude | Longitude | Altitude | Speed | Heading |
|---|---|---|---|---|---|
| 2026-05-07 18:21 | 23.64568 | 45.51590 | 36955 ft | 533 kts | 101° |
| 2026-05-07 18:22 | 23.64231 | 45.55615 | 36930 ft | 533 kts | 101° |
| 2026-05-07 18:22 | 23.63552 | 45.63653 | 36943 ft | 531 kts | 101° |
| 2026-05-07 18:23 | 23.62876 | 45.71632 | 36945 ft | 531 kts | 101° |
| 2026-05-07 18:23 | 23.62194 | 45.79642 | 36924 ft | 530 kts | 101° |
| 2026-05-07 18:24 | 23.61508 | 45.87634 | 36935 ft | 529 kts | 101° |
| 2026-05-07 18:24 | 23.60818 | 45.95627 | 36939 ft | 529 kts | 101° |
| 2026-05-07 18:25 | 23.60123 | 46.03621 | 36934 ft | 529 kts | 101° |
| 2026-05-07 18:25 | 23.59427 | 46.11608 | 36944 ft | 529 kts | 101° |
| 2026-05-07 18:26 | 23.58730 | 46.19551 | 36949 ft | 530 kts | 101° |
| 2026-05-07 18:26 | 23.58022 | 46.27545 | 36946 ft | 530 kts | 101° |
| 2026-05-07 18:27 | 23.57283 | 46.35579 | 33596 ft | 567 kts | 99° |
| 2026-05-07 18:27 | 23.56962 | 46.39697 | 34792 ft | 534 kts | 100° |
| 2026-05-07 18:27 | 23.56660 | 46.43264 | 34757 ft | 538 kts | 101° |
| 2026-05-07 18:29 | 23.56641 | 46.43463 | 34774 ft | 538 kts | 101° |
| 2026-05-07 18:29 | 23.56255 | 46.47514 | 35047 ft | 536 kts | 101° |
| 2026-05-07 18:29 | 23.55875 | 46.51562 | 35265 ft | 536 kts | 101° |
| 2026-05-07 18:29 | 23.55504 | 46.55600 | 35520 ft | 534 kts | 101° |
| 2026-05-07 18:30 | 23.55135 | 46.59622 | 35737 ft | 533 kts | 101° |
| 2026-05-07 18:30 | 23.54767 | 46.63639 | 36001 ft | 531 kts | 101° |
| 2026-05-07 18:30 | 23.54399 | 46.67635 | 36249 ft | 530 kts | 101° |
| 2026-05-07 18:30 | 23.54029 | 46.71639 | 36495 ft | 529 kts | 101° |
| 2026-05-07 18:31 | 23.53658 | 46.75629 | 36693 ft | 529 kts | 101° |
| 2026-05-07 18:31 | 23.53285 | 46.79624 | 36816 ft | 530 kts | 101° |
| 2026-05-07 18:31 | 23.52910 | 46.83628 | 36863 ft | 533 kts | 101° |
| 2026-05-07 18:32 | 23.52158 | 46.91653 | 36924 ft | 535 kts | 101° |
| 2026-05-07 18:32 | 23.51408 | 46.99660 | 36915 ft | 525 kts | 101° |
| 2026-05-07 18:33 | 23.50660 | 47.07560 | 36921 ft | 523 kts | 101° |
| 2026-05-07 18:33 | 23.49913 | 47.15381 | 36915 ft | 522 kts | 101° |
| 2026-05-07 18:34 | 23.49159 | 47.23244 | 36911 ft | 522 kts | 101° |
| 2026-05-07 18:34 | 23.48402 | 47.31124 | 36912 ft | 523 kts | 101° |
| 2026-05-07 18:35 | 23.47637 | 47.38998 | 36904 ft | 524 kts | 101° |
| 2026-05-07 18:35 | 23.46869 | 47.46891 | 36903 ft | 524 kts | 101° |
| 2026-05-07 18:36 | 23.46101 | 47.54757 | 36906 ft | 526 kts | 101° |
| 2026-05-07 18:36 | 23.45329 | 47.62673 | 36899 ft | 526 kts | 101° |
| 2026-05-07 18:37 | 23.44556 | 47.70585 | 36888 ft | 526 kts | 101° |
| 2026-05-07 18:37 | 23.43779 | 47.78506 | 36894 ft | 526 kts | 101° |
| 2026-05-07 18:38 | 23.42998 | 47.86417 | 36884 ft | 525 kts | 101° |
| 2026-05-07 18:38 | 23.42215 | 47.94317 | 36876 ft | 523 kts | 101° |
| 2026-05-07 18:39 | 23.41428 | 48.02190 | 36872 ft | 523 kts | 100° |
| 2026-05-07 18:39 | 23.40642 | 48.10008 | 36866 ft | 522 kts | 100° |
| 2026-05-07 18:40 | 23.39845 | 48.17915 | 36868 ft | 521 kts | 101° |
| 2026-05-07 18:40 | 23.39053 | 48.25712 | 36856 ft | 521 kts | 100° |
| 2026-05-07 18:41 | 23.38261 | 48.33544 | 36862 ft | 521 kts | 99° |
| 2026-05-07 18:41 | 23.37835 | 48.41430 | 36855 ft | 522 kts | 96° |
| 2026-05-07 18:42 | 23.37609 | 48.48045 | 36849 ft | 522 kts | 96° |
| 2026-05-07 18:42 | 23.37329 | 48.55892 | 36851 ft | 521 kts | 96° |
| 2026-05-07 18:43 | 23.37014 | 48.63780 | 36850 ft | 522 kts | 96° |
| 2026-05-07 18:43 | 23.36686 | 48.71676 | 36851 ft | 521 kts | 96° |
| 2026-05-07 18:44 | 23.36353 | 48.79559 | 36844 ft | 522 kts | 96° |
| 2026-05-07 18:44 | 23.36020 | 48.87452 | 36842 ft | 522 kts | 96° |
| 2026-05-07 18:45 | 23.35683 | 48.95351 | 36848 ft | 522 kts | 96° |
| 2026-05-07 18:45 | 23.35342 | 49.03235 | 36843 ft | 522 kts | 96° |
| 2026-05-07 18:46 | 23.34651 | 49.11019 | 36856 ft | 517 kts | 102° |
| 2026-05-07 18:46 | 23.33507 | 49.18757 | 36836 ft | 518 kts | 103° |
| 2026-05-07 18:47 | 23.32342 | 49.26502 | 36847 ft | 518 kts | 103° |
| 2026-05-07 18:47 | 23.31205 | 49.34245 | 36838 ft | 519 kts | 102° |
| 2026-05-07 18:48 | 23.30081 | 49.42009 | 36834 ft | 519 kts | 102° |
| 2026-05-07 18:48 | 23.28961 | 49.49750 | 36833 ft | 519 kts | 102° |
| 2026-05-07 18:49 | 23.27831 | 49.57500 | 36832 ft | 518 kts | 102° |
| 2026-05-07 18:49 | 23.26698 | 49.65224 | 36841 ft | 518 kts | 102° |
| 2026-05-07 18:50 | 23.25560 | 49.72957 | 36842 ft | 518 kts | 102° |
| 2026-05-07 18:50 | 23.24426 | 49.80654 | 36839 ft | 518 kts | 102° |
| 2026-05-07 18:51 | 23.23283 | 49.88390 | 36841 ft | 518 kts | 102° |
| 2026-05-07 18:51 | 23.22133 | 49.96138 | 36843 ft | 518 kts | 103° |
| 2026-05-07 18:52 | 23.20980 | 50.03872 | 36833 ft | 518 kts | 102° |
| 2026-05-07 18:52 | 23.19826 | 50.11595 | 36839 ft | 518 kts | 102° |
| 2026-05-07 18:53 | 23.18674 | 50.19268 | 36839 ft | 518 kts | 102° |
| 2026-05-07 18:53 | 23.17511 | 50.26997 | 36833 ft | 517 kts | 102° |
| 2026-05-07 18:54 | 23.16347 | 50.34714 | 36834 ft | 516 kts | 102° |
| 2026-05-07 18:54 | 23.15178 | 50.42414 | 36838 ft | 516 kts | 102° |
| 2026-05-07 18:55 | 23.14006 | 50.50119 | 36828 ft | 516 kts | 102° |
| 2026-05-07 18:55 | 23.12832 | 50.57817 | 36827 ft | 516 kts | 102° |
| 2026-05-07 18:56 | 23.11659 | 50.65478 | 36826 ft | 516 kts | 102° |
| 2026-05-07 18:56 | 23.10478 | 50.73172 | 36834 ft | 516 kts | 102° |
| 2026-05-07 18:57 | 23.09291 | 50.80873 | 36829 ft | 516 kts | 102° |
| 2026-05-07 18:57 | 23.08109 | 50.88516 | 36846 ft | 516 kts | 102° |
| 2026-05-07 18:58 | 23.06914 | 50.96200 | 36828 ft | 516 kts | 102° |
| 2026-05-07 18:58 | 23.05718 | 51.03897 | 36833 ft | 516 kts | 102° |
| 2026-05-07 18:59 | 23.04518 | 51.11587 | 36826 ft | 516 kts | 102° |
| 2026-05-07 18:59 | 23.03316 | 51.19260 | 36834 ft | 515 kts | 102° |
| 2026-05-07 19:00 | 23.02114 | 51.26907 | 36836 ft | 513 kts | 102° |
| 2026-05-07 19:00 | 23.00911 | 51.34547 | 36833 ft | 513 kts | 102° |
| 2026-05-07 19:01 | 22.99714 | 51.42121 | 36828 ft | 512 kts | 102° |
| 2026-05-07 19:01 | 22.98505 | 51.49735 | 36827 ft | 511 kts | 102° |
| 2026-05-07 19:02 | 22.97294 | 51.57334 | 36823 ft | 511 kts | 102° |
| 2026-05-07 19:02 | 22.96079 | 51.64935 | 36827 ft | 510 kts | 102° |
| 2026-05-07 19:03 | 22.94864 | 51.72525 | 36829 ft | 510 kts | 102° |
| 2026-05-07 19:03 | 22.93653 | 51.80056 | 36822 ft | 510 kts | 102° |
| 2026-05-07 19:04 | 22.92431 | 51.87637 | 36821 ft | 510 kts | 102° |
| 2026-05-07 19:04 | 22.91202 | 51.95235 | 36821 ft | 510 kts | 102° |
| 2026-05-07 19:05 | 22.89974 | 52.02810 | 36826 ft | 510 kts | 102° |
| 2026-05-07 19:05 | 22.88742 | 52.10386 | 36823 ft | 510 kts | 102° |
| 2026-05-07 19:06 | 22.87506 | 52.17957 | 36821 ft | 510 kts | 102° |
| 2026-05-07 19:06 | 22.85652 | 52.29265 | 36822 ft | 509 kts | 102° |
| 2026-05-07 19:07 | 22.84411 | 52.36816 | 36823 ft | 508 kts | 102° |
| 2026-05-07 19:07 | 22.83165 | 52.44370 | 36820 ft | 508 kts | 102° |
| 2026-05-07 19:08 | 22.81950 | 52.51923 | 36818 ft | 508 kts | 101° |
| 2026-05-07 19:08 | 22.81025 | 52.59533 | 36813 ft | 508 kts | 99° |
| 2026-05-07 19:09 | 22.80188 | 52.67090 | 36816 ft | 507 kts | 99° |
| 2026-05-07 19:09 | 22.79303 | 52.74682 | 36820 ft | 507 kts | 99° |
| 2026-05-07 19:10 | 22.78382 | 52.82270 | 36823 ft | 508 kts | 99° |
| 2026-05-07 19:10 | 22.77447 | 52.89860 | 36816 ft | 508 kts | 99° |
| 2026-05-07 19:11 | 22.76515 | 52.97449 | 36819 ft | 507 kts | 99° |
| 2026-05-07 19:11 | 22.75581 | 53.05038 | 36816 ft | 507 kts | 99° |
| 2026-05-07 19:12 | 22.74650 | 53.12562 | 36818 ft | 506 kts | 99° |
| 2026-05-07 19:12 | 22.73712 | 53.20118 | 36815 ft | 506 kts | 99° |
| 2026-05-07 19:13 | 22.72772 | 53.27674 | 36817 ft | 505 kts | 99° |
| 2026-05-07 19:13 | 22.71827 | 53.35223 | 36817 ft | 506 kts | 99° |
| 2026-05-07 19:14 | 22.70878 | 53.42770 | 36820 ft | 505 kts | 99° |
| 2026-05-07 19:14 | 22.69926 | 53.50315 | 36820 ft | 505 kts | 99° |
| 2026-05-07 19:15 | 22.68975 | 53.57821 | 36814 ft | 505 kts | 99° |
| 2026-05-07 19:15 | 22.68017 | 53.65350 | 36814 ft | 504 kts | 99° |
| 2026-05-07 19:16 | 22.67058 | 53.72867 | 36819 ft | 503 kts | 99° |
| 2026-05-07 19:16 | 22.66098 | 53.80373 | 36813 ft | 503 kts | 99° |
| 2026-05-07 19:17 | 22.65134 | 53.87867 | 36816 ft | 503 kts | 99° |
| 2026-05-07 19:17 | 22.64173 | 53.95311 | 36816 ft | 502 kts | 99° |
| 2026-05-07 19:18 | 22.63204 | 54.02809 | 36810 ft | 503 kts | 99° |
| 2026-05-07 19:18 | 22.62230 | 54.10307 | 36820 ft | 502 kts | 99° |
| 2026-05-07 19:19 | 22.61253 | 54.17791 | 36816 ft | 503 kts | 99° |
| 2026-05-07 19:19 | 22.60836 | 54.25329 | 36812 ft | 505 kts | 84° |
| 2026-05-07 19:20 | 22.62586 | 54.32667 | 36810 ft | 507 kts | 66° |
| 2026-05-07 19:20 | 22.65745 | 54.39489 | 36824 ft | 507 kts | 63° |
| 2026-05-07 19:21 | 22.68841 | 54.46313 | 36821 ft | 508 kts | 65° |
| 2026-05-07 19:21 | 22.71877 | 54.53235 | 36814 ft | 509 kts | 65° |
| 2026-05-07 19:22 | 22.74931 | 54.60183 | 36814 ft | 510 kts | 65° |
| 2026-05-07 19:22 | 22.77977 | 54.67109 | 36815 ft | 510 kts | 65° |
| 2026-05-07 19:23 | 22.81029 | 54.74058 | 36811 ft | 510 kts | 65° |
| 2026-05-07 19:23 | 22.84054 | 54.80966 | 36810 ft | 510 kts | 65° |
| 2026-05-07 19:24 | 22.87099 | 54.87924 | 36810 ft | 510 kts | 65° |
| 2026-05-07 19:24 | 22.90118 | 54.94835 | 36811 ft | 510 kts | 65° |
| 2026-05-07 19:25 | 22.93152 | 55.01789 | 36816 ft | 510 kts | 65° |
| 2026-05-07 19:25 | 22.96182 | 55.08744 | 36826 ft | 510 kts | 65° |
| 2026-05-07 19:26 | 22.99208 | 55.15697 | 36824 ft | 509 kts | 65° |
| 2026-05-07 19:26 | 23.02035 | 55.21276 | 36821 ft | 506 kts | 49° |
| 2026-05-07 19:27 | 23.04594 | 55.23878 | 36844 ft | 505 kts | 34° |
| 2026-05-07 19:27 | 23.07643 | 55.25740 | 36829 ft | 503 kts | 20° |
| 2026-05-07 19:27 | 23.15476 | 55.27989 | 36850 ft | 503 kts | 12° |
| 2026-05-07 19:28 | 23.21175 | 55.29564 | 36846 ft | 506 kts | 13° |
| 2026-05-07 19:28 | 23.27971 | 55.31533 | 35984 ft | 520 kts | 13° |
| 2026-05-07 19:29 | 23.31438 | 55.32555 | 35255 ft | 518 kts | 13° |
| 2026-05-07 19:29 | 23.34933 | 55.33588 | 34313 ft | 521 kts | 13° |
| 2026-05-07 19:29 | 23.38433 | 55.34622 | 33300 ft | 523 kts | 13° |
| 2026-05-07 19:29 | 23.41953 | 55.35658 | 32233 ft | 524 kts | 13° |
| 2026-05-07 19:30 | 23.45479 | 55.36696 | 31205 ft | 525 kts | 13° |
| 2026-05-07 19:30 | 23.49013 | 55.37737 | 30272 ft | 524 kts | 13° |
| 2026-05-07 19:30 | 23.52509 | 55.38768 | 29526 ft | 517 kts | 13° |
| 2026-05-07 19:30 | 23.55962 | 55.39791 | 28745 ft | 510 kts | 13° |
| 2026-05-07 19:31 | 23.59366 | 55.40803 | 28053 ft | 503 kts | 13° |
| 2026-05-07 19:31 | 23.62727 | 55.41804 | 27381 ft | 497 kts | 13° |
| 2026-05-07 19:31 | 23.66045 | 55.42793 | 26721 ft | 491 kts | 14° |
| 2026-05-07 19:31 | 23.69326 | 55.43769 | 26082 ft | 486 kts | 14° |
| 2026-05-07 19:32 | 23.72530 | 55.44721 | 25461 ft | 481 kts | 14° |
| 2026-05-07 19:32 | 23.75746 | 55.45679 | 24816 ft | 477 kts | 14° |
| 2026-05-07 19:32 | 23.78943 | 55.46632 | 24167 ft | 473 kts | 14° |
| 2026-05-07 19:32 | 23.82108 | 55.47576 | 23554 ft | 469 kts | 15° |
| 2026-05-07 19:33 | 23.85247 | 55.48512 | 22832 ft | 466 kts | 15° |
| 2026-05-07 19:33 | 23.88354 | 55.49438 | 22160 ft | 461 kts | 15° |
| 2026-05-07 19:33 | 23.91429 | 55.50352 | 21559 ft | 456 kts | 15° |
| 2026-05-07 19:33 | 23.94478 | 55.51257 | 20941 ft | 450 kts | 15° |
| 2026-05-07 19:34 | 23.97486 | 55.52152 | 20344 ft | 445 kts | 15° |
| 2026-05-07 19:34 | 24.00453 | 55.53035 | 19753 ft | 440 kts | 15° |
| 2026-05-07 19:34 | 24.03373 | 55.53902 | 19098 ft | 438 kts | 16° |
| 2026-05-07 19:34 | 24.06315 | 55.54771 | 18449 ft | 436 kts | 16° |
| 2026-05-07 19:35 | 24.09232 | 55.55633 | 17807 ft | 432 kts | 16° |
| 2026-05-07 19:35 | 24.12120 | 55.56485 | 17203 ft | 427 kts | 16° |
| 2026-05-07 19:35 | 24.14976 | 55.57330 | 16608 ft | 422 kts | 16° |
| 2026-05-07 19:35 | 24.17795 | 55.58086 | 16012 ft | 411 kts | 9° |
| 2026-05-07 19:36 | 24.20636 | 55.57990 | 15454 ft | 410 kts | 349° |
| 2026-05-07 19:36 | 24.23289 | 55.56869 | 14918 ft | 409 kts | 331° |
| 2026-05-07 19:36 | 24.25502 | 55.54980 | 14347 ft | 409 kts | 315° |
| 2026-05-07 19:36 | 24.27222 | 55.52501 | 13826 ft | 406 kts | 300° |
| 2026-05-07 19:37 | 24.28260 | 55.49694 | 13655 ft | 389 kts | 283° |
| 2026-05-07 19:37 | 24.28763 | 55.46832 | 13472 ft | 376 kts | 280° |
| 2026-05-07 19:37 | 24.29230 | 55.44057 | 13302 ft | 365 kts | 281° |
| 2026-05-07 19:37 | 24.29714 | 55.41378 | 13258 ft | 351 kts | 282° |
| 2026-05-07 19:38 | 24.30197 | 55.38822 | 13174 ft | 338 kts | 282° |
| 2026-05-07 19:38 | 24.30674 | 55.36339 | 13018 ft | 328 kts | 282° |
| 2026-05-07 19:38 | 24.31268 | 55.33952 | 12713 ft | 323 kts | 288° |
| 2026-05-07 19:38 | 24.32000 | 55.31640 | 12405 ft | 318 kts | 290° |
| 2026-05-07 19:39 | 24.32746 | 55.29368 | 12098 ft | 315 kts | 290° |
| 2026-05-07 19:39 | 24.33468 | 55.27120 | 11901 ft | 307 kts | 289° |
| 2026-05-07 19:39 | 24.34150 | 55.24956 | 11769 ft | 297 kts | 288° |
| 2026-05-07 19:39 | 24.34807 | 55.22833 | 11379 ft | 296 kts | 288° |
| 2026-05-07 19:40 | 24.35461 | 55.20700 | 11049 ft | 293 kts | 288° |
| 2026-05-07 19:40 | 24.36104 | 55.18599 | 10714 ft | 290 kts | 288° |
| 2026-05-07 19:40 | 24.36741 | 55.16515 | 10418 ft | 286 kts | 288° |
| 2026-05-07 19:40 | 24.37370 | 55.14450 | 10085 ft | 284 kts | 288° |
| 2026-05-07 19:41 | 24.37997 | 55.12394 | 9812 ft | 281 kts | 288° |
| 2026-05-07 19:41 | 24.38611 | 55.10381 | 9537 ft | 278 kts | 287° |
| 2026-05-07 19:41 | 24.39217 | 55.08381 | 9232 ft | 273 kts | 288° |
| 2026-05-07 19:41 | 24.39811 | 55.06446 | 8961 ft | 270 kts | 288° |
| 2026-05-07 19:42 | 24.40406 | 55.04509 | 8691 ft | 266 kts | 287° |
| 2026-05-07 19:42 | 24.40985 | 55.02603 | 8440 ft | 259 kts | 284° |
| 2026-05-07 19:42 | 24.41076 | 55.00673 | 8169 ft | 253 kts | 256° |
| 2026-05-07 19:42 | 24.40355 | 54.98909 | 7951 ft | 258 kts | 234° |
| 2026-05-07 19:43 | 24.39078 | 54.97496 | 7719 ft | 264 kts | 220° |
| 2026-05-07 19:43 | 24.37573 | 54.96358 | 7441 ft | 264 kts | 203° |
| 2026-05-07 19:43 | 24.35763 | 54.96058 | 7197 ft | 266 kts | 174° |
| 2026-05-07 19:43 | 24.34013 | 54.96698 | 6942 ft | 268 kts | 149° |
| 2026-05-07 19:44 | 24.32661 | 54.98050 | 6678 ft | 266 kts | 129° |
| 2026-05-07 19:44 | 24.31537 | 54.99655 | 6515 ft | 264 kts | 128° |
| 2026-05-07 19:44 | 24.30422 | 55.01234 | 6300 ft | 260 kts | 128° |
| 2026-05-07 19:44 | 24.29318 | 55.02802 | 5913 ft | 259 kts | 128° |
| 2026-05-07 19:45 | 24.28230 | 55.04336 | 5640 ft | 250 kts | 129° |
| 2026-05-07 19:45 | 24.27179 | 55.05814 | 5381 ft | 239 kts | 129° |
| 2026-05-07 19:45 | 24.25967 | 55.06994 | 5148 ft | 233 kts | 157° |
| 2026-05-07 19:45 | 24.24405 | 55.07259 | 5095 ft | 229 kts | 188° |
| 2026-05-07 19:46 | 24.22907 | 55.06729 | 4933 ft | 234 kts | 209° |
| 2026-05-07 19:46 | 24.21569 | 55.05714 | 4580 ft | 230 kts | 218° |
| 2026-05-07 19:46 | 24.20388 | 55.04574 | 4269 ft | 224 kts | 232° |
| 2026-05-07 19:46 | 24.19830 | 55.03017 | 4114 ft | 222 kts | 264° |
| 2026-05-07 19:47 | 24.19991 | 55.01318 | 4058 ft | 225 kts | 286° |
| 2026-05-07 19:47 | 24.20788 | 54.99844 | 4047 ft | 229 kts | 307° |
| 2026-05-07 19:47 | 24.21786 | 54.98475 | 4014 ft | 229 kts | 307° |
| 2026-05-07 19:47 | 24.22764 | 54.97133 | 3932 ft | 227 kts | 305° |
| 2026-05-07 19:48 | 24.23597 | 54.95677 | 3801 ft | 225 kts | 297° |
| 2026-05-07 19:48 | 24.24349 | 54.94175 | 3700 ft | 225 kts | 297° |
| 2026-05-07 19:48 | 24.25104 | 54.92667 | 3580 ft | 224 kts | 298° |
| 2026-05-07 19:48 | 24.25837 | 54.91239 | 3442 ft | 205 kts | 298° |
| 2026-05-07 19:49 | 24.26505 | 54.89953 | 3348 ft | 184 kts | 298° |
| 2026-05-07 19:49 | 24.27125 | 54.88760 | 3300 ft | 181 kts | 298° |
| 2026-05-07 19:49 | 24.27730 | 54.87583 | 3193 ft | 180 kts | 298° |
| 2026-05-07 19:49 | 24.28385 | 54.86395 | 3117 ft | 180 kts | 302° |
| 2026-05-07 19:50 | 24.29092 | 54.85264 | 3069 ft | 179 kts | 304° |
| 2026-05-07 19:50 | 24.29825 | 54.84177 | 3020 ft | 177 kts | 306° |
| 2026-05-07 19:50 | 24.30570 | 54.83109 | 3027 ft | 182 kts | 307° |
| 2026-05-07 19:50 | 24.31347 | 54.82008 | 3025 ft | 183 kts | 306° |
| 2026-05-07 19:51 | 24.32128 | 54.80909 | 3019 ft | 182 kts | 307° |
| 2026-05-07 19:51 | 24.32899 | 54.79823 | 2841 ft | 173 kts | 307° |
| 2026-05-07 19:51 | 24.33592 | 54.78845 | 2636 ft | 155 kts | 307° |
| 2026-05-07 19:51 | 24.34221 | 54.77958 | 2454 ft | 142 kts | 307° |
| 2026-05-07 19:52 | 24.34834 | 54.77100 | 2277 ft | 143 kts | 307° |
| 2026-05-07 19:52 | 24.35442 | 54.76245 | 2082 ft | 140 kts | 305° |
| 2026-05-07 19:52 | 24.36016 | 54.75404 | 1895 ft | 135 kts | 307° |
| 2026-05-07 19:52 | 24.36599 | 54.74578 | 1801 ft | 141 kts | 309° |
| 2026-05-07 19:53 | 24.37220 | 54.73722 | 1623 ft | 143 kts | 309° |
| 2026-05-07 19:53 | 24.37815 | 54.72875 | 1433 ft | 138 kts | 308° |
| 2026-05-07 19:53 | 24.38390 | 54.72054 | 1237 ft | 136 kts | 310° |
| 2026-05-07 19:53 | 24.38966 | 54.71243 | 1090 ft | 133 kts | 309° |
| 2026-05-07 19:54 | 24.39547 | 54.70432 | 928 ft | 135 kts | 310° |
| 2026-05-07 19:54 | 24.40132 | 54.69595 | 732 ft | 137 kts | 309° |
| 2026-05-07 19:54 | 24.40714 | 54.68759 | 599 ft | 142 kts | 311° |
| 2026-05-07 19:54 | 24.41324 | 54.67912 | 387 ft | 139 kts | 309° |
| 2026-05-07 19:55 | 24.41924 | 54.67073 | 272 ft | 143 kts | 310° |
| 2026-05-07 19:55 | 24.42534 | 54.66212 | 99 ft | 140 kts | 309° |
| 2026-05-07 19:55 | 24.43068 | 54.65450 | 87 ft | 112 kts | 308° |
| 2026-05-07 19:55 | 24.43472 | 54.64930 | 87 ft | 68 kts | 325° |
| 2026-05-07 19:56 | 24.43756 | 54.64783 | 85 ft | 23 kts | 326° |
| 2026-05-07 19:56 | 24.43796 | 54.64770 | 86 ft | 0 kts | 356° |
| 2026-05-07 19:56 | 24.43802 | 54.64769 | 85 ft | 6 kts | 358° |
| 2026-05-07 19:56 | 24.43859 | 54.64768 | 81 ft | 9 kts | 349° |
| 2026-05-07 19:57 | 24.43912 | 54.64733 | 83 ft | 9 kts | 310° |
| 2026-05-07 19:57 | 24.43950 | 54.64677 | 86 ft | 9 kts | 307° |
| 2026-05-07 19:57 | 24.43990 | 54.64621 | 85 ft | 9 kts | 307° |
| 2026-05-07 19:57 | 24.44030 | 54.64565 | 85 ft | 9 kts | 308° |
| 2026-05-07 19:58 | 24.44068 | 54.64509 | 85 ft | 9 kts | 307° |
| 2026-05-07 19:58 | 24.44107 | 54.64454 | 86 ft | 9 kts | 307° |
| 2026-05-07 19:58 | 24.44147 | 54.64398 | 86 ft | 9 kts | 310° |
| 2026-05-07 19:58 | 24.44206 | 54.64381 | 86 ft | 10 kts | 19° |
| 2026-05-07 19:59 | 24.44256 | 54.64430 | 85 ft | 10 kts | 64° |
| 2026-05-07 19:59 | 24.44287 | 54.64498 | 85 ft | 10 kts | 52° |
| 2026-05-07 19:59 | 24.44339 | 54.64552 | 86 ft | 10 kts | 41° |
| 2026-05-07 19:59 | 24.44397 | 54.64600 | 85 ft | 10 kts | 25° |
| 2026-05-07 20:00 | 24.44412 | 54.64602 | 86 ft | 1 kts | 357° |
| 2026-05-07 20:00 | 24.44416 | 54.64599 | 86 ft | 1 kts | 340° |
| 2026-05-07 20:00 | 24.44426 | 54.64595 | 84 ft | 2 kts | 343° |
| 2026-05-07 20:00 | 24.44442 | 54.64588 | 86 ft | 3 kts | 333° |
| 2026-05-07 20:01 | 24.44454 | 54.64577 | 84 ft | 0 kts | 313° |
| 2026-05-07 20:01 | 24.44455 | 54.64576 | 84 ft | 0 kts | 311° |
| 2026-05-07 20:01 | 24.44457 | 54.64574 | 86 ft | 1 kts | 311° |
| 2026-05-07 20:01 | 24.44464 | 54.64565 | 85 ft | 2 kts | 311° |
| 2026-05-07 20:02 | 24.44471 | 54.64555 | 81 ft | 0 kts | 309° |
| 2026-05-07 20:02 | 24.44474 | 54.64552 | 82 ft | 0 kts | 309° |